createdAt,value
2019-06-10T00:03:06.017Z,1.87
2019-06-10T00:08:12.037Z,1.70
2019-06-10T00:13:17.217Z,2.03
2019-06-10T00:18:35.304Z,2.87
2019-06-10T00:23:47.316Z,2.40
2019-06-10T00:28:51.441Z,2.37
2019-06-10T00:33:55.938Z,1.75
2019-06-10T00:38:59.400Z,1.70
2019-06-10T00:44:04.934Z,2.00
2019-06-10T00:49:12.565Z,2.20
2019-06-10T00:54:15.684Z,1.75
2019-06-10T00:59:22.107Z,2.00
2019-06-10T01:04:25.103Z,2.08
2019-06-10T01:09:28.443Z,1.80
2019-06-10T01:14:32.345Z,1.92
2019-06-10T01:19:36.083Z,1.90
2019-06-10T01:24:40.794Z,1.87
2019-06-10T01:29:44.181Z,2.10
2019-06-10T01:34:50.679Z,2.40
2019-06-10T01:39:54.000Z,2.30
2019-06-10T01:44:57.307Z,2.50
2019-06-10T01:50:00.834Z,2.25
2019-06-10T01:55:05.774Z,2.35
2019-06-10T02:00:15.928Z,2.35
2019-06-10T02:05:17.743Z,2.60
2019-06-10T02:10:22.987Z,2.37
2019-06-10T02:15:26.813Z,2.00
2019-06-10T02:20:31.777Z,2.37
2019-06-10T02:25:35.629Z,2.15
2019-06-10T02:30:49.265Z,2.00
2019-06-10T02:35:49.022Z,1.90
2019-06-10T02:40:53.602Z,2.35
2019-06-10T02:45:56.473Z,1.80
2019-06-10T02:51:07.129Z,1.67
2019-06-10T02:56:12.641Z,1.95
2019-06-10T03:01:17.346Z,2.17
2019-06-10T03:06:30.352Z,2.10
2019-06-10T03:11:31.929Z,2.85
2019-06-10T03:16:52.969Z,2.00
2019-06-10T03:21:57.048Z,2.00
2019-06-10T03:27:02.602Z,2.08
2019-06-10T03:32:05.893Z,1.60
2019-06-10T03:37:09.941Z,1.90
2019-06-10T03:42:13.405Z,2.02
2019-06-10T03:47:17.150Z,2.50
2019-06-10T03:52:23.521Z,1.62
2019-06-10T03:57:28.226Z,1.65
2019-06-10T04:02:32.665Z,1.87
2019-06-10T04:07:36.334Z,1.50
2019-06-10T04:12:39.676Z,1.60
2019-06-10T04:17:43.222Z,1.65
2019-06-10T04:22:46.930Z,2.10
2019-06-10T04:27:52.331Z,1.70
2019-06-10T04:32:57.174Z,2.08
2019-06-10T04:38:02.484Z,2.00
2019-06-10T04:43:05.709Z,1.60
2019-06-10T04:48:09.095Z,1.77
2019-06-10T04:53:12.932Z,1.87
2019-06-10T04:58:16.516Z,2.20
2019-06-10T05:03:20.892Z,2.17
2019-06-10T05:08:26.914Z,2.02
2019-06-10T05:18:34.115Z,2.37
2019-06-10T05:23:37.753Z,2.33
2019-06-10T05:28:43.165Z,2.95
2019-06-10T05:38:52.361Z,4.53
2019-06-10T05:43:55.200Z,4.33
2019-06-10T05:48:59.592Z,3.37
2019-06-10T05:54:03.051Z,2.92
2019-06-10T05:59:08.395Z,2.47
2019-06-10T06:04:13.350Z,2.80
2019-06-10T06:09:16.629Z,2.50
2019-06-10T06:14:22.477Z,3.02
2019-06-10T06:19:26.066Z,2.95
2019-06-10T06:24:29.830Z,4.00
2019-06-10T06:29:36.190Z,3.62
2019-06-10T06:34:39.477Z,3.22
2019-06-10T06:39:43.039Z,4.35
2019-06-10T06:44:47.516Z,4.67
2019-06-10T06:49:53.178Z,4.75
2019-06-10T06:59:59.310Z,6.42
2019-06-10T07:05:03.880Z,5.85
2019-06-10T07:10:07.605Z,7.07
2019-06-10T07:15:13.240Z,7.60
2019-06-10T07:20:16.692Z,7.22
2019-06-10T07:25:22.853Z,7.80
2019-06-10T07:30:26.440Z,7.35
2019-06-10T07:35:32.596Z,8.78
2019-06-10T07:40:36.547Z,8.48
2019-06-10T07:45:45.180Z,8.13
2019-06-10T07:50:46.502Z,8.20
2019-06-10T07:55:50.673Z,8.08
2019-06-10T08:00:55.847Z,8.90
2019-06-10T08:05:59.170Z,8.55
2019-06-10T08:11:03.410Z,8.35
2019-06-10T08:16:08.463Z,9.38
2019-06-10T08:21:13.662Z,7.95
2019-06-10T08:26:18.815Z,8.53
2019-06-10T08:31:25.058Z,9.08
2019-06-10T08:36:28.583Z,9.60
2019-06-10T08:41:33.400Z,8.65
2019-06-10T08:46:36.839Z,8.90
2019-06-10T08:51:43.265Z,9.25
2019-06-10T08:56:50.319Z,8.43
2019-06-10T09:01:56.567Z,7.95
2019-06-10T09:06:58.339Z,8.53
2019-06-10T09:12:03.628Z,8.27
2019-06-10T09:17:06.963Z,8.55
2019-06-10T09:22:12.594Z,8.58
2019-06-10T09:27:18.229Z,8.75
2019-06-10T09:32:23.467Z,8.53
2019-06-10T09:37:27.723Z,8.30
2019-06-10T09:47:38.411Z,8.28
2019-06-10T09:52:47.537Z,8.38
2019-06-10T09:57:53.411Z,8.35
2019-06-10T10:02:56.224Z,8.10
2019-06-10T10:07:59.049Z,8.85
2019-06-10T10:13:02.761Z,8.48
2019-06-10T10:18:08.571Z,8.50
2019-06-10T10:23:13.801Z,8.48
2019-06-10T10:28:17.226Z,8.93
2019-06-10T10:33:23.589Z,8.78
2019-06-10T10:38:26.368Z,8.25
2019-06-10T10:43:34.229Z,7.85
2019-06-10T10:48:35.326Z,7.30
2019-06-10T10:53:38.737Z,8.15
2019-06-10T10:58:45.336Z,8.30
2019-06-10T11:03:50.074Z,7.72
2019-06-10T11:08:55.873Z,8.45
2019-06-10T11:14:03.298Z,8.43
2019-06-10T11:19:06.258Z,8.70
2019-06-10T11:24:09.969Z,9.07
2019-06-10T11:29:13.429Z,8.55
2019-06-10T11:34:19.871Z,8.97
2019-06-10T11:39:23.534Z,9.68
2019-06-10T11:44:26.897Z,9.50
2019-06-10T11:49:30.304Z,8.95
2019-06-10T11:54:47.889Z,8.93
2019-06-10T11:59:39.005Z,8.80
2019-06-10T12:04:42.713Z,9.03
2019-06-10T12:09:46.106Z,9.03
2019-06-10T12:14:51.549Z,8.43
2019-06-10T12:19:59.389Z,8.45
2019-06-10T12:25:26.713Z,9.48
2019-06-10T12:30:07.204Z,10.25
2019-06-10T12:35:13.487Z,9.98
2019-06-10T12:40:17.040Z,10.13
2019-06-10T12:45:23.368Z,10.35
2019-06-10T12:50:27.120Z,9.30
2019-06-10T13:00:44.607Z,10.15
2019-06-10T13:05:47.923Z,10.28
2019-06-10T13:10:53.236Z,10.45
2019-06-10T13:15:58.135Z,9.63
2019-06-10T13:21:06.972Z,8.70
2019-06-10T13:26:11.908Z,9.05
2019-06-10T13:31:12.290Z,9.20
2019-06-10T13:36:17.479Z,9.00
2019-06-10T13:46:26.333Z,9.18
2019-06-10T13:56:46.345Z,9.65
2019-06-10T14:01:38.708Z,8.50
2019-06-10T14:11:47.226Z,8.68
2019-06-10T14:16:53.028Z,9.35
2019-06-10T14:21:55.851Z,10.63
2019-06-10T14:26:59.267Z,6.40
2019-06-10T14:32:04.103Z,6.42
2019-06-10T14:37:10.397Z,9.23
2019-06-10T14:42:16.014Z,6.08
2019-06-10T14:47:22.998Z,5.75
2019-06-10T14:52:27.336Z,6.67
2019-06-10T14:57:33.420Z,7.78
2019-06-10T15:02:37.356Z,8.65
2019-06-10T15:07:42.325Z,10.40
2019-06-10T15:12:45.801Z,10.88
2019-06-10T15:17:52.268Z,7.05
2019-06-10T15:22:55.176Z,6.05
2019-06-10T15:27:58.526Z,6.08
2019-06-10T15:33:02.998Z,5.35
2019-06-10T15:38:08.773Z,5.03
2019-06-10T15:43:13.828Z,4.73
2019-06-10T15:48:19.710Z,5.28
2019-06-10T15:53:25.786Z,4.90
2019-06-10T15:58:28.798Z,5.33
2019-06-10T16:03:33.190Z,4.80
2019-06-10T16:08:36.565Z,5.40
2019-06-10T16:13:39.902Z,4.72
2019-06-10T16:18:43.424Z,4.55
2019-06-10T16:23:47.247Z,5.35
2019-06-10T16:28:52.244Z,6.33
2019-06-10T16:33:56.914Z,8.58
2019-06-10T16:39:00.239Z,7.50
2019-06-10T16:44:03.537Z,4.92
2019-06-10T16:49:07.459Z,5.20
2019-06-10T16:54:12.868Z,4.90
2019-06-10T16:59:17.638Z,5.00
2019-06-10T17:04:24.001Z,5.85
2019-06-10T17:09:27.805Z,5.80
2019-06-10T17:14:33.589Z,6.97
2019-06-10T17:19:37.877Z,7.72
2019-06-10T17:24:42.316Z,7.78
2019-06-10T17:29:46.149Z,8.28
2019-06-10T17:34:52.640Z,8.90
2019-06-10T17:39:56.261Z,9.08
2019-06-10T17:44:59.666Z,8.63
2019-06-10T17:50:04.992Z,9.50
2019-06-10T17:55:08.390Z,11.90
2019-06-10T18:00:14.755Z,11.08
2019-06-10T18:05:18.769Z,11.30
2019-06-10T18:10:24.048Z,12.33
2019-06-10T18:15:28.208Z,12.73
2019-06-10T18:20:33.971Z,14.50
2019-06-10T18:25:40.012Z,14.65
2019-06-10T18:30:43.618Z,15.23
2019-06-10T18:35:48.416Z,15.88
2019-06-10T18:46:09.089Z,13.73
2019-06-10T18:51:13.701Z,14.23
2019-06-10T18:56:17.304Z,14.50
2019-06-10T19:01:22.628Z,15.60
2019-06-10T19:06:27.137Z,13.80
2019-06-10T19:11:33.690Z,13.23
2019-06-10T19:16:38.579Z,14.00
2019-06-10T19:21:43.895Z,16.05
2019-06-10T19:26:48.188Z,16.70
2019-06-10T19:31:52.640Z,14.38
2019-06-10T19:36:56.311Z,16.27
2019-06-10T19:41:59.567Z,16.48
2019-06-10T19:47:03.010Z,13.55
2019-06-10T19:52:06.828Z,15.78
2019-06-10T19:57:12.731Z,15.30
2019-06-10T20:02:15.544Z,14.50
2019-06-10T20:07:19.009Z,14.58
2019-06-10T20:12:23.047Z,13.68
2019-06-10T20:17:26.438Z,13.38
2019-06-10T20:22:32.046Z,11.60
2019-06-10T20:27:35.601Z,13.50
2019-06-10T20:32:41.542Z,12.68
2019-06-10T20:43:09.167Z,12.82
2019-06-10T20:48:13.577Z,11.50
2019-06-10T20:53:18.631Z,12.05
2019-06-10T20:58:22.919Z,12.28
2019-06-10T21:03:26.608Z,11.75
2019-06-10T21:08:33.982Z,11.60
2019-06-10T21:13:38.165Z,14.50
2019-06-10T21:18:45.300Z,12.55
2019-06-10T21:23:51.736Z,10.58
2019-06-10T21:28:55.749Z,11.50
2019-06-10T21:34:02.607Z,12.68
2019-06-10T21:39:07.207Z,12.33
2019-06-10T21:44:13.156Z,10.90
2019-06-10T21:49:16.837Z,13.58
2019-06-10T21:54:22.400Z,13.00
2019-06-10T21:59:25.573Z,13.58
2019-06-10T22:04:29.100Z,10.70
2019-06-10T22:09:32.677Z,11.88
2019-06-10T22:14:36.099Z,14.93
2019-06-10T22:19:42.611Z,10.98
2019-06-10T22:24:46.689Z,11.25
2019-06-10T22:29:51.255Z,11.48
2019-06-10T22:34:57.019Z,10.78
2019-06-10T22:40:03.264Z,11.12
2019-06-10T22:45:07.392Z,11.20
2019-06-10T22:50:12.593Z,10.80
2019-06-10T22:55:15.964Z,11.10
2019-06-10T23:00:22.256Z,11.25
2019-06-10T23:05:25.788Z,10.35
2019-06-10T23:10:29.664Z,11.73
2019-06-10T23:15:33.183Z,10.95
2019-06-10T23:20:36.717Z,11.45
2019-06-10T23:25:40.154Z,10.75
2019-06-10T23:30:44.539Z,10.63
2019-06-10T23:35:50.299Z,11.05
2019-06-10T23:40:54.747Z,11.45
2019-06-10T23:45:59.262Z,24.80
2019-06-10T23:51:04.883Z,11.70
2019-06-10T23:56:12.671Z,10.45
